Time;durP1;ratioP1;P1;durP2;ratioP2;P2;SDS_P1;SDS_P2;PMS_P1;PMS_P2;Temp;Humidity;BMP_temperature;BMP_pressure;BME280_temperature;BME280_humidity;BME280_pressure;Samples;Min_cycle;Max_cycle;Signal;HPM_P1;HPM_P2
2021/04/26 00:02:35;;;;;;;26.15;11.30;;;;;;;1.53;56.66;100898.63;2287673;77;27653;-73
2021/04/26 00:05:38;;;;;;;25.80;12.37;;;;;;;1.51;56.73;100900.39;2265883;77;28814;-72
2021/04/26 00:08:40;;;;;;;26.93;11.75;;;;;;;1.46;56.49;100908.33;2304087;77;31674;-69
2021/04/26 00:11:42;;;;;;;25.60;10.28;;;;;;;1.43;56.66;100902.19;2304089;77;33087;-68
2021/04/26 00:14:45;;;;;;;25.17;10.75;;;;;;;1.39;56.86;100902.64;2272605;77;28913;-69
2021/04/26 00:17:47;;;;;;;25.12;11.15;;;;;;;1.37;56.99;100903.08;2268845;77;27666;-69
2021/04/26 00:20:51;;;;;;;23.18;11.63;;;;;;;1.34;56.63;100909.22;2264531;78;28808;-69
2021/04/26 00:23:53;;;;;;;23.92;10.90;;;;;;;1.29;57.00;100899.14;2283496;77;31295;-70
2021/04/26 00:26:56;;;;;;;27.87;11.08;;;;;;;1.29;57.12;100904.84;2273171;77;33121;-68
2021/04/26 00:29:58;;;;;;;26.70;11.88;;;;;;;1.27;57.28;100904.86;2282516;77;28845;-71
2021/04/26 00:33:00;;;;;;;32.75;12.88;;;;;;;1.26;57.49;100901.77;2285290;77;27621;-70
2021/04/26 00:36:03;;;;;;;28.52;11.93;;;;;;;1.25;57.52;100899.12;2305774;77;28693;-70
2021/04/26 00:39:05;;;;;;;28.65;12.15;;;;;;;1.28;57.81;100896.48;2306204;77;31126;-69
2021/04/26 00:42:07;;;;;;;31.50;13.25;;;;;;;1.30;57.67;100890.77;2296519;77;33103;-69
2021/04/26 00:45:14;;;;;;;29.75;12.95;;;;;;;1.32;57.66;100896.50;2290580;77;28850;-72
2021/04/26 00:48:16;;;;;;;34.40;13.03;;;;;;;1.34;57.83;100889.88;2267302;77;27679;-74
2021/04/26 00:51:18;;;;;;;34.95;15.83;;;;;;;1.35;57.96;100885.05;2292773;77;29636;-72
2021/04/26 00:54:20;;;;;;;34.10;13.80;;;;;;;1.35;57.45;100883.72;2303483;77;31124;-71
2021/04/26 00:57:22;;;;;;;25.95;12.43;;;;;;;1.33;57.73;100888.98;2305358;77;34035;-67
2021/04/26 01:00:25;;;;;;;29.00;13.25;;;;;;;1.33;57.98;100884.16;2289447;77;29163;-71
2021/04/26 01:03:28;;;;;;;29.80;13.08;;;;;;;1.29;57.62;100881.08;2297909;77;27526;-72
2021/04/26 01:06:30;;;;;;;28.07;12.35;;;;;;;1.26;58.01;100878.02;2301996;77;29234;-72
2021/04/26 01:09:32;;;;;;;29.10;13.75;;;;;;;1.20;57.82;100881.98;2301534;77;31252;-76
2021/04/26 01:12:57;;;;;;;29.23;12.47;;;;;;;1.18;58.05;100882.42;2298156;77;33578;-68
2021/04/26 01:16:25;;;;;;;29.55;13.35;;;;;;;1.13;57.75;100885.07;2305228;77;30048;-72
2021/04/26 01:20:05;;;;;;;27.55;12.55;;;;;;;1.09;58.00;100881.98;2267607;77;27707;-68
2021/04/26 01:24:03;;;;;;;27.58;12.73;;;;;;;1.05;57.82;100878.94;2283871;77;28879;-69
2021/04/26 01:27:10;;;;;;;28.02;12.30;;;;;;;0.99;57.80;100878.51;2254918;77;31342;-68
2021/04/26 01:30:16;;;;;;;28.12;12.40;;;;;;;0.93;57.84;100876.28;2258585;78;33191;-67
2021/04/26 01:33:23;;;;;;;25.40;11.63;;;;;;;0.87;57.72;100867.52;2265390;77;29155;-68
2021/04/26 01:36:36;;;;;;;33.13;11.80;;;;;;;0.86;57.66;100868.40;2195197;79;33955;-69
2021/04/26 01:39:38;;;;;;;29.30;10.75;;;;;;;0.78;57.96;100875.88;2157667;81;27722;-67
2021/04/26 01:42:44;;;;;;;26.52;11.10;;;;;;;0.72;57.90;100870.16;2139933;82;28777;-69
2021/04/26 01:45:49;;;;;;;19.17;9.28;;;;;;;0.67;57.89;100866.18;2130172;82;31143;-68
2021/04/26 01:48:53;;;;;;;21.35;9.68;;;;;;;0.62;57.83;100861.37;2120623;82;34045;-70
2021/04/26 01:51:55;;;;;;;21.87;9.75;;;;;;;0.61;57.77;100864.88;2148210;82;28528;-68
2021/04/26 01:54:58;;;;;;;27.73;10.08;;;;;;;0.58;58.17;100855.64;2134665;82;27686;-68
2021/04/26 01:58:01;;;;;;;21.55;8.95;;;;;;;0.56;57.96;100858.30;2143059;82;28818;-68
2021/04/26 02:01:03;;;;;;;19.67;9.48;;;;;;;0.52;57.89;100860.48;2146615;82;31154;-68
2021/04/26 02:04:06;;;;;;;26.65;8.43;;;;;;;0.50;57.85;100854.77;2167775;82;33114;-68
2021/04/26 02:07:10;;;;;;;19.70;8.35;;;;;;;0.47;57.85;100850.81;2135070;82;28913;-71
2021/04/26 02:10:12;;;;;;;25.95;12.03;;;;;;;0.46;58.13;100855.19;2150914;82;27690;-68
2021/04/26 02:13:21;;;;;;;24.35;11.25;;;;;;;0.43;58.19;100843.31;2136144;82;28784;-68
2021/04/26 02:16:23;;;;;;;20.08;8.50;;;;;;;0.41;57.99;100847.73;2136467;82;31173;-68
2021/04/26 02:19:25;;;;;;;28.57;11.73;;;;;;;0.38;58.26;100845.95;2170633;81;33124;-68
2021/04/26 02:22:28;;;;;;;20.60;8.78;;;;;;;0.35;58.21;100845.95;2141367;82;28902;-70
2021/04/26 02:25:30;;;;;;;20.95;9.05;;;;;;;0.31;58.16;100844.20;2166710;82;27732;-70
2021/04/26 02:28:32;;;;;;;19.77;8.18;;;;;;;0.28;58.20;100838.47;2170747;82;28853;-69
2021/04/26 02:31:35;;;;;;;23.52;8.58;;;;;;;0.24;58.22;100839.38;2171890;82;31149;-74
2021/04/26 02:34:44;;;;;;;22.25;7.78;;;;;;;0.22;58.23;100839.80;2168032;81;34046;-68
2021/04/26 02:38:09;;;;;;;16.50;7.42;;;;;;;0.20;58.37;100841.97;2152630;82;29742;-68
2021/04/26 02:41:17;;;;;;;18.65;7.17;;;;;;;0.18;58.34;100841.98;2160970;82;27591;-69
2021/04/26 02:44:24;;;;;;;14.95;7.40;;;;;;;0.14;58.54;100842.42;2154913;82;30129;-68
2021/04/26 02:47:28;;;;;;;16.90;7.47;;;;;;;0.13;58.71;100839.77;2146855;82;30030;-68
2021/04/26 02:50:31;;;;;;;20.40;8.25;;;;;;;0.10;58.56;100843.28;2153114;82;34385;-68
2021/04/26 02:53:34;;;;;;;18.07;7.45;;;;;;;0.07;58.46;100841.95;2148364;82;29858;-67
2021/04/26 02:56:41;;;;;;;17.45;9.03;;;;;;;0.04;58.66;100840.63;2155734;81;27710;-68
2021/04/26 02:59:45;;;;;;;19.02;7.95;;;;;;;0.03;58.59;100834.91;2138121;82;28891;-68
2021/04/26 03:02:48;;;;;;;15.30;7.17;;;;;;;0.01;58.62;100847.20;2170067;82;31247;-69
2021/04/26 03:05:51;;;;;;;15.85;7.42;;;;;;;0.02;58.70;100837.55;2128896;82;34348;-69
2021/04/26 03:08:54;;;;;;;16.07;7.78;;;;;;;-0.02;58.79;100841.95;2151774;82;28832;-71
2021/04/26 03:11:57;;;;;;;14.78;7.20;;;;;;;-0.03;58.69;100842.81;2142104;82;27611;-71
2021/04/26 03:14:59;;;;;;;19.00;8.20;;;;;;;-0.06;58.82;100845.44;2164639;82;28844;-68
2021/04/26 03:18:02;;;;;;;14.30;7.30;;;;;;;-0.09;58.82;100838.42;2169975;82;30332;-68
2021/04/26 03:21:10;;;;;;;15.95;7.15;;;;;;;-0.11;58.94;100849.38;2160008;81;34003;-67
2021/04/26 03:24:15;;;;;;;12.58;6.08;;;;;;;-0.12;59.08;100842.35;2147527;82;29724;-76
2021/04/26 03:27:20;;;;;;;16.45;7.22;;;;;;;-0.15;59.13;100834.44;2157457;82;27589;-69
2021/04/26 03:30:25;;;;;;;15.25;6.97;;;;;;;-0.15;59.18;100841.02;2149012;82;28783;-68
2021/04/26 03:33:33;;;;;;;16.12;7.08;;;;;;;-0.15;59.36;100843.66;2162373;82;31212;-68
2021/04/26 03:36:37;;;;;;;17.10;7.12;;;;;;;-0.18;59.38;100844.95;2150761;82;33105;-68
2021/04/26 03:39:40;;;;;;;18.15;7.05;;;;;;;-0.22;59.46;100837.91;2139560;82;29765;-68
2021/04/26 03:42:42;;;;;;;18.12;8.43;;;;;;;-0.21;59.42;100844.94;2147757;82;27671;-68
2021/04/26 03:45:45;;;;;;;17.87;8.00;;;;;;;-0.23;59.36;100841.00;2138590;82;29723;-70
2021/04/26 03:48:48;;;;;;;13.90;7.53;;;;;;;-0.22;59.56;100844.08;2170890;82;32113;-68
2021/04/26 03:51:51;;;;;;;22.65;9.18;;;;;;;-0.22;59.58;100846.70;2170570;82;33109;-67
2021/04/26 03:54:54;;;;;;;23.07;8.35;;;;;;;-0.19;59.77;100843.19;2151067;81;28837;-67
2021/04/26 03:57:56;;;;;;;26.45;9.30;;;;;;;-0.18;59.74;100851.53;2134441;82;27747;-68
2021/04/26 04:00:58;;;;;;;17.57;8.93;;;;;;;-0.14;59.76;100847.16;2157655;82;29678;-68
2021/04/26 04:04:00;;;;;;;16.82;7.55;;;;;;;-0.10;59.84;100850.25;2149812;82;31139;-68
2021/04/26 04:07:02;;;;;;;22.85;7.95;;;;;;;-0.06;59.90;100854.20;2158468;82;33130;-69
2021/04/26 04:10:08;;;;;;;13.83;6.58;;;;;;;-0.02;59.85;100861.25;2161457;82;28894;-69
2021/04/26 04:13:10;;;;;;;12.47;6.60;;;;;;;0.06;59.71;100866.53;2151808;82;27799;-68
2021/04/26 04:16:12;;;;;;;16.45;7.28;;;;;;;0.10;59.76;100863.05;2159961;82;30053;-68
2021/04/26 04:19:14;;;;;;;16.75;7.30;;;;;;;0.19;59.78;100867.87;2148057;82;31169;-68
2021/04/26 04:22:16;;;;;;;18.00;7.28;;;;;;;0.24;59.77;100874.95;2169251;82;33559;-69
2021/04/26 04:25:19;;;;;;;20.48;7.45;;;;;;;0.32;59.69;100873.64;2146213;82;29005;-68
2021/04/26 04:28:21;;;;;;;19.42;7.55;;;;;;;0.39;59.94;100871.89;2133998;83;27645;-68
2021/04/26 04:31:23;;;;;;;17.02;7.60;;;;;;;0.50;59.92;100874.09;2141200;82;28816;-69
2021/04/26 04:34:25;;;;;;;23.07;8.40;;;;;;;0.57;59.95;100871.92;2140691;82;31646;-68
2021/04/26 04:37:27;;;;;;;21.73;9.33;;;;;;;0.67;59.79;100878.50;2159589;81;33520;-69
2021/04/26 04:40:29;;;;;;;20.27;8.70;;;;;;;0.77;59.90;100873.66;2149210;82;29743;-69
2021/04/26 04:43:32;;;;;;;22.13;8.53;;;;;;;0.89;59.79;100875.42;2137206;82;27701;-68
2021/04/26 04:46:34;;;;;;;18.98;9.28;;;;;;;1.13;59.66;100882.89;2166987;82;29565;-69
2021/04/26 04:49:36;;;;;;;19.65;8.70;;;;;;;1.67;59.65;100878.79;2145141;82;31127;-69
2021/04/26 04:52:40;;;;;;;14.13;7.28;;;;;;;2.48;59.68;100878.38;2149340;82;33207;-71
2021/04/26 04:55:42;;;;;;;14.78;7.33;;;;;;;3.31;58.87;100878.98;2159130;82;28852;-70
2021/04/26 04:58:44;;;;;;;15.95;7.67;;;;;;;4.02;57.79;100871.97;2148122;82;27719;-73
2021/04/26 05:01:47;;;;;;;20.97;8.68;;;;;;;4.71;57.11;100874.53;2167968;82;28826;-70
2021/04/26 05:04:49;;;;;;;19.05;7.75;;;;;;;5.02;56.49;100874.02;2163886;82;31123;-72
2021/04/26 05:07:51;;;;;;;17.67;8.38;;;;;;;5.16;55.78;100870.66;2154845;82;32308;-70
2021/04/26 05:10:53;;;;;;;16.97;7.10;;;;;;;5.22;55.26;100872.33;2147199;82;28846;-70
2021/04/26 05:13:56;;;;;;;15.25;7.42;;;;;;;5.23;54.77;100876.73;2151558;81;27717;-71
2021/04/26 05:16:58;;;;;;;17.30;6.58;;;;;;;5.20;54.49;100879.44;2162908;82;28901;-71
2021/04/26 05:20:00;;;;;;;19.45;7.30;;;;;;;5.16;54.29;100877.73;2137623;82;31143;-71
2021/04/26 05:23:02;;;;;;;12.93;7.17;;;;;;;5.11;54.27;100876.49;2136077;82;33205;-72
2021/04/26 05:26:05;;;;;;;18.30;6.78;;;;;;;5.14;54.26;100878.20;2143488;82;30320;-69
2021/04/26 05:29:10;;;;;;;16.97;6.60;;;;;;;5.17;54.15;100877.73;2134892;82;27858;-71
2021/04/26 05:32:13;;;;;;;23.32;8.83;;;;;;;5.23;54.05;100874.08;2143045;82;28814;-70
2021/04/26 05:35:15;;;;;;;21.27;9.20;;;;;;;5.33;54.33;100874.32;2140225;81;31218;-69
2021/04/26 05:38:20;;;;;;;28.80;16.32;;;;;;;5.51;54.16;100869.56;2169392;82;33129;-70
2021/04/26 05:41:22;;;;;;;11.18;6.58;;;;;;;5.67;53.95;100871.91;2152578;82;28871;-70
2021/04/26 05:44:27;;;;;;;19.05;8.33;;;;;;;5.83;53.54;100870.70;2157041;82;27786;-70
2021/04/26 05:47:29;;;;;;;;;;;;;;;6.07;53.47;100871.98;2166119;82;28875;-71
2021/04/26 05:50:32;;;;;;;13.40;6.58;;;;;;;6.44;52.81;100870.31;2151601;82;31152;-71
2021/04/26 05:53:35;;;;;;;12.88;7.75;;;;;;;6.86;52.79;100872.41;2139133;82;33189;-72
2021/04/26 05:56:38;;;;;;;18.75;7.42;;;;;;;7.18;52.27;100869.38;2143163;82;28910;-77
2021/04/26 05:59:40;;;;;;;17.48;8.10;;;;;;;7.96;51.92;100872.11;2160143;82;27728;-70
2021/04/26 06:02:42;;;;;;;14.03;7.28;;;;;;;8.55;50.72;100867.22;2141838;82;28891;-70
2021/04/26 06:05:45;;;;;;;15.45;7.85;;;;;;;8.62;50.17;100866.56;2147272;82;31142;-71
2021/04/26 06:08:47;;;;;;;12.73;7.25;;;;;;;8.89;50.33;100858.10;2168752;82;34047;-74
2021/04/26 06:11:50;;;;;;;16.23;7.50;;;;;;;9.31;49.87;100854.00;2150498;81;28910;-68
2021/04/26 06:14:53;;;;;;;13.70;7.30;;;;;;;9.32;48.87;100855.75;2164897;82;27755;-68
2021/04/26 06:18:11;;;;;;;14.03;7.10;;;;;;;9.52;48.89;100861.70;2136746;82;28827;-68
2021/04/26 06:21:14;;;;;;;12.68;6.65;;;;;;;10.10;48.03;100855.56;2146924;82;32208;-67
2021/04/26 06:24:16;;;;;;;9.18;5.10;;;;;;;10.78;47.64;100853.75;2133958;83;33289;-67
2021/04/26 06:27:19;;;;;;;11.85;5.62;;;;;;;11.42;46.70;100843.49;2161020;82;29294;-66
2021/04/26 06:30:21;;;;;;;12.20;6.37;;;;;;;12.00;45.74;100843.98;2171095;82;27654;-63
2021/04/26 06:33:25;;;;;;;13.72;4.47;;;;;;;12.50;45.78;100841.63;2171052;82;29763;-64
2021/04/26 06:36:29;;;;;;;6.90;3.37;;;;;;;12.98;44.56;100837.46;2148690;81;31115;-67
2021/04/26 06:39:31;;;;;;;6.12;3.27;;;;;;;13.27;43.16;100832.39;2141994;82;33152;-63
2021/04/26 06:42:34;;;;;;;8.35;5.58;;;;;;;13.58;42.79;100835.28;2168477;82;29163;-66
2021/04/26 06:45:40;;;;;;;10.05;4.40;;;;;;;13.95;42.73;100832.83;2165164;82;27657;-65
2021/04/26 06:48:44;;;;;;;10.48;4.87;;;;;;;14.38;41.78;100825.50;2133796;83;28941;-62
2021/04/26 06:51:48;;;;;;;6.78;3.55;;;;;;;14.73;41.71;100824.43;2142073;82;31141;-65
2021/04/26 06:54:51;;;;;;;10.63;3.50;;;;;;;14.80;40.42;100822.23;2134233;83;34340;-66
2021/04/26 06:57:53;;;;;;;7.37;3.17;;;;;;;14.77;40.02;100815.20;2133888;83;29225;-64
2021/04/26 07:00:56;;;;;;;8.33;4.40;;;;;;;14.94;39.70;100808.79;2133978;83;27666;-65
2021/04/26 07:03:58;;;;;;;10.03;3.52;;;;;;;15.16;38.66;100814.25;2165163;82;28826;-65
2021/04/26 07:07:02;;;;;;;7.80;2.80;;;;;;;15.28;38.08;100812.14;2170430;82;31145;-65
2021/04/26 07:10:06;;;;;;;5.42;2.70;;;;;;;15.33;37.71;100807.34;2168405;82;34025;-66
2021/04/26 07:13:08;;;;;;;6.00;2.67;;;;;;;15.52;37.31;100804.86;2171283;82;29169;-67
2021/04/26 07:16:10;;;;;;;6.70;3.12;;;;;;;15.62;36.76;100805.15;2134205;82;27728;-69
2021/04/26 07:19:13;;;;;;;5.70;2.55;;;;;;;15.79;36.93;100795.50;2158805;82;29382;-63
2021/04/26 07:22:16;;;;;;;3.42;2.60;;;;;;;15.96;36.11;100793.58;2170210;82;31141;-65
2021/04/26 07:25:19;;;;;;;4.17;2.45;;;;;;;16.22;35.74;100793.70;2170713;82;33628;-64
2021/04/26 07:28:22;;;;;;;5.58;3.30;;;;;;;16.47;35.20;100780.78;2171030;81;30125;-65
2021/04/26 07:31:24;;;;;;;4.03;2.10;;;;;;;16.47;35.20;100780.78;2142819;82;28132;-69
2021/04/26 07:34:26;;;;;;;6.37;1.95;;;;;;;16.73;33.81;100779.99;2134111;83;28829;-66
2021/04/26 07:37:29;;;;;;;8.95;2.27;;;;;;;16.84;33.50;100780.12;2133883;82;31143;-63
2021/04/26 07:40:34;;;;;;;5.78;2.20;;;;;;;16.95;33.12;100757.30;2150540;82;33093;-61
2021/04/26 07:43:38;;;;;;;11.30;5.60;;;;;;;17.42;32.45;100777.93;2171032;82;29228;-62
2021/04/26 07:46:40;;;;;;;5.43;2.13;;;;;;;17.75;32.55;100775.13;2171431;81;27637;-66
2021/04/26 07:49:43;;;;;;;3.70;2.08;;;;;;;17.95;31.64;100770.61;2169708;82;28870;-67
2021/04/26 07:52:45;;;;;;;10.05;5.75;;;;;;;18.20;32.42;100764.27;2156499;81;31144;-64
2021/04/26 07:55:47;;;;;;;1.75;1.32;;;;;;;18.58;30.70;100769.14;2138858;82;32296;-62
2021/04/26 07:58:49;;;;;;;3.37;2.60;;;;;;;18.83;30.41;100766.77;2133159;83;29184;-63
2021/04/26 08:01:52;;;;;;;1.98;1.22;;;;;;;18.72;29.32;100770.30;2134571;82;27530;-61
2021/04/26 08:04:54;;;;;;;2.75;1.60;;;;;;;18.00;29.15;100769.80;2133905;83;28874;-62
2021/04/26 08:07:56;;;;;;;8.78;4.62;;;;;;;17.57;29.23;100785.94;2133846;83;31199;-66
2021/04/26 08:10:59;;;;;;;8.28;4.00;;;;;;;17.45;29.49;100766.88;2165952;82;33217;-63
2021/04/26 08:14:02;;;;;;;8.58;3.85;;;;;;;17.04;29.62;100772.03;2170945;82;29201;-65
2021/04/26 08:17:04;;;;;;;39.30;15.08;;;;;;;16.50;29.29;100764.83;2170923;81;27726;-66
2021/04/26 08:20:09;;;;;;;13.78;7.37;;;;;;;15.95;29.59;100769.73;2150376;81;29753;-65
2021/04/26 08:23:12;;;;;;;22.50;12.80;;;;;;;15.45;29.59;100774.67;2134013;83;32082;-64
2021/04/26 08:26:16;;;;;;;10.60;4.80;;;;;;;14.98;30.20;100775.28;2133674;83;33057;-64
2021/04/26 08:29:18;;;;;;;4.20;2.52;;;;;;;15.02;30.12;100772.79;2133927;83;29588;-62
2021/04/26 08:32:21;;;;;;;10.88;4.97;;;;;;;14.83;30.35;100781.59;2133931;83;27736;-61
2021/04/26 08:35:23;;;;;;;4.22;2.00;;;;;;;14.99;30.84;100789.63;2155781;82;29231;-65
2021/04/26 08:38:26;;;;;;;2.35;1.30;;;;;;;14.97;30.03;100782.13;2170883;81;32259;-67
2021/04/26 08:41:29;;;;;;;5.20;1.32;;;;;;;14.67;29.64;100782.48;2170831;82;33099;-65
2021/04/26 08:44:32;;;;;;;3.00;1.98;;;;;;;14.27;29.35;100784.33;2170918;82;30039;-63
2021/04/26 08:47:38;;;;;;;1.85;1.27;;;;;;;14.53;29.69;100782.43;2147090;82;27600;-66
2021/04/26 08:50:41;;;;;;;4.70;1.90;;;;;;;14.83;28.05;100782.45;2133225;82;29700;-62
2021/04/26 08:53:44;;;;;;;4.15;1.95;;;;;;;15.17;29.61;100775.51;2133949;83;31238;-65
2021/04/26 08:56:47;;;;;;;3.00;1.98;;;;;;;15.46;29.27;100774.17;2148654;82;34160;-61
2021/04/26 08:59:50;;;;;;;4.60;2.12;;;;;;;15.28;28.87;100777.05;2160387;82;29173;-61
2021/04/26 09:02:59;;;;;;;5.87;2.42;;;;;;;15.12;28.80;100778.96;2150622;82;27643;-68
2021/04/26 09:06:01;;;;;;;4.40;2.00;;;;;;;14.83;28.36;100774.86;2133025;83;28833;-62
2021/04/26 09:09:04;;;;;;;1.87;1.20;;;;;;;14.44;28.28;100777.95;2140707;82;31154;-65
2021/04/26 09:12:31;;;;;;;2.77;1.52;;;;;;;14.11;28.29;100770.85;2171124;82;33533;-63
2021/04/26 09:15:38;;;;;;;4.60;1.65;;;;;;;14.17;28.79;100776.36;2142251;81;29172;-67
2021/04/26 09:18:54;;;;;;;4.00;1.80;;;;;;;14.17;28.68;100775.02;2130056;82;27918;-68
2021/04/26 09:21:58;;;;;;;2.40;1.45;;;;;;;14.46;28.30;100763.52;2134030;82;28821;-65
2021/04/26 09:25:06;;;;;;;3.05;1.90;;;;;;;14.80;28.06;100766.94;2133949;82;32093;-70
2021/04/26 09:28:15;;;;;;;2.22;1.50;;;;;;;14.94;28.59;100763.42;2163215;82;32310;-69
2021/04/26 09:31:18;;;;;;;2.30;1.62;;;;;;;14.85;27.90;100767.05;2148355;80;29195;-67
2021/04/26 09:34:36;;;;;;;15.23;8.13;;;;;;;14.72;28.17;100770.98;2151900;82;27786;-72
2021/04/26 09:37:38;;;;;;;6.92;2.12;;;;;;;14.39;27.99;100769.28;2150455;81;29703;-68
2021/04/26 09:40:41;;;;;;;4.20;1.05;;;;;;;13.98;28.23;100763.94;2154991;81;31142;-68
2021/04/26 09:43:48;;;;;;;2.90;1.87;;;;;;;13.71;28.62;100760.11;2146976;81;34051;-61
2021/04/26 09:46:53;;;;;;;4.42;2.02;;;;;;;13.38;28.45;100764.55;2161843;81;31497;-65
2021/04/26 09:50:05;;;;;;;3.12;1.98;;;;;;;13.20;29.10;100763.23;2155165;81;28255;-67
2021/04/26 09:53:09;;;;;;;2.45;1.40;;;;;;;13.17;29.39;100747.70;2147559;81;28677;-67
2021/04/26 09:56:30;;;;;;;2.07;1.00;;;;;;;13.11;29.18;100745.36;2152535;81;31131;-68
2021/04/26 09:59:33;;;;;;;6.12;1.80;;;;;;;13.00;28.68;100749.96;2159915;81;34253;-68
2021/04/26 10:02:37;;;;;;;3.22;1.40;;;;;;;13.02;29.55;100742.69;2149493;81;29185;-67
2021/04/26 10:05:45;;;;;;;2.27;1.60;;;;;;;13.12;29.15;100742.58;2157967;81;27809;-71
2021/04/26 10:08:50;;;;;;;4.87;1.27;;;;;;;13.24;29.20;100740.20;2155652;81;28810;-64
2021/04/26 10:11:52;;;;;;;;;;;;;;;13.28;29.02;100739.06;2159374;81;31115;-63
2021/04/26 10:14:55;;;;;;;3.42;1.80;;;;;;;13.26;29.53;100731.09;2150519;81;33111;-68
2021/04/26 10:17:59;;;;;;;1.40;1.00;;;;;;;13.47;29.78;100730.42;2157495;81;30506;-63
2021/04/26 10:21:03;;;;;;;3.37;2.05;;;;;;;13.67;29.43;100725.27;2153245;81;27731;-71
2021/04/26 10:24:19;;;;;;;5.28;1.40;;;;;;;13.85;29.23;100727.03;2153462;81;28825;-61
2021/04/26 10:27:33;;;;;;;7.25;1.85;;;;;;;13.95;28.59;100725.54;2160011;81;31268;-61
2021/04/26 10:30:40;;;;;;;5.42;2.98;;;;;;;13.94;28.69;100714.38;2151293;81;33172;-66
2021/04/26 10:34:03;;;;;;;12.60;7.35;;;;;;;13.79;27.67;100718.83;2152218;81;30157;-61
2021/04/26 10:37:16;;;;;;;7.55;3.37;;;;;;;13.50;27.83;100715.91;2152934;81;27954;-62
2021/04/26 10:40:23;;;;;;;6.55;2.17;;;;;;;13.28;28.43;100710.35;2147593;81;30048;-67
2021/04/26 10:43:27;;;;;;;4.08;2.80;;;;;;;13.16;28.53;100710.99;2147942;81;32561;-62
2021/04/26 10:46:29;;;;;;;4.08;2.02;;;;;;;13.01;28.79;100701.45;2166058;81;34150;-61
2021/04/26 10:49:32;;;;;;;15.93;10.53;;;;;;;13.01;29.07;100697.91;2154284;81;30139;-62
2021/04/26 10:52:39;;;;;;;5.28;2.98;;;;;;;12.94;28.73;100701.87;2152071;81;27740;-62
2021/04/26 10:55:45;;;;;;;3.08;2.05;;;;;;;12.85;28.76;100692.01;2153816;81;29311;-66
2021/04/26 10:58:48;;;;;;;2.15;1.37;;;;;;;12.96;29.20;100688.75;2151551;81;31146;-60
2021/04/26 11:01:52;;;;;;;5.37;1.65;;;;;;;13.06;28.75;100687.78;2136219;81;33554;-60
2021/04/26 11:05:19;;;;;;;5.63;1.50;;;;;;;13.13;29.20;100681.59;2157063;81;30083;-60
2021/04/26 11:08:38;;;;;;;2.77;1.25;;;;;;;13.35;29.16;100679.94;2079935;84;28206;-64
2021/04/26 11:11:51;;;;;;;3.02;1.27;;;;;;;13.58;29.31;100680.03;2080913;84;28844;-61
2021/04/26 11:14:50;;;;;;;3.62;1.32;;;;;;;13.64;28.53;100676.12;2045006;85;31165;-64
2021/04/26 11:17:54;;;;;;;4.67;2.30;;;;;;;13.62;28.60;100673.98;2080441;84;36981;-61
2021/04/26 11:20:56;;;;;;;9.45;3.72;;;;;;;13.68;29.20;100675.85;2079494;85;29170;-61
2021/04/26 11:23:59;;;;;;;4.33;1.35;;;;;;;13.68;28.42;100676.34;2080491;85;27808;-61
2021/04/26 11:27:15;;;;;;;4.90;1.57;;;;;;;13.61;28.01;100680.33;2078437;85;27950;-61
2021/04/26 11:30:21;;;;;;;3.25;2.00;;;;;;;13.43;27.90;100669.63;2046090;86;31139;-61
2021/04/26 11:33:23;;;;;;;1.82;1.45;;;;;;;13.47;28.32;100666.31;2047906;85;34039;-60
2021/04/26 11:36:25;;;;;;;2.87;1.12;;;;;;;13.60;28.38;100669.16;2080747;85;29263;-62
2021/04/26 11:39:31;;;;;;;3.98;1.85;;;;;;;13.73;28.40;100667.54;2112876;83;27714;-61
2021/04/26 11:42:33;;;;;;;3.12;1.27;;;;;;;13.77;27.19;100662.84;2085473;84;28830;-61
2021/04/26 11:45:38;;;;;;;4.97;2.35;;;;;;;13.70;27.87;100658.28;2085907;84;31427;-62
2021/04/26 11:48:41;;;;;;;2.27;1.30;;;;;;;13.79;27.97;100648.81;2180808;81;34060;-60
2021/04/26 11:51:47;;;;;;;1.70;1.10;;;;;;;13.88;27.92;100648.27;2152941;81;29607;-61
2021/04/26 11:55:09;;;;;;;1.62;1.30;;;;;;;13.87;26.43;100646.53;2143631;83;27627;-60
2021/04/26 11:58:12;;;;;;;2.92;1.80;;;;;;;13.72;26.86;100638.88;2145987;81;28818;-60
2021/04/26 12:01:14;;;;;;;1.60;1.30;;;;;;;13.50;26.79;100621.70;2143862;83;31560;-60
2021/04/26 12:04:39;;;;;;;2.27;1.50;;;;;;;13.54;27.97;100628.66;2169078;81;35548;-61
2021/04/26 12:07:43;;;;;;;1.80;1.20;;;;;;;13.54;27.37;100623.77;2143861;81;29149;-61
2021/04/26 12:10:46;;;;;;;3.40;1.35;;;;;;;13.37;26.47;100626.41;2156047;81;27690;-59
2021/04/26 12:14:12;;;;;;;3.27;1.45;;;;;;;13.17;26.65;100622.61;2147313;81;29704;-59
2021/04/26 12:17:30;;;;;;;6.10;3.05;;;;;;;12.94;26.85;100618.50;2181149;81;31139;-60
2021/04/26 12:20:40;;;;;;;4.58;1.95;;;;;;;12.76;27.39;100612.71;2160913;81;35514;-60
2021/04/26 12:23:43;;;;;;;3.35;1.37;;;;;;;12.69;27.62;100605.06;2173771;81;29248;-59
2021/04/26 12:26:45;;;;;;;5.67;1.22;;;;;;;12.70;27.34;100601.42;2180908;81;27793;-60
2021/04/26 12:29:48;;;;;;;1.62;1.10;;;;;;;12.61;27.37;100596.91;2166244;81;31136;-59
2021/04/26 12:32:51;;;;;;;4.60;1.47;;;;;;;12.54;27.90;100596.86;2143479;83;31132;-59
2021/04/26 12:35:55;;;;;;;1.98;1.12;;;;;;;12.54;27.68;100590.61;2143625;83;33961;-60
2021/04/26 12:38:57;;;;;;;1.85;1.17;;;;;;;12.46;26.99;100598.62;2145754;81;29658;-60
2021/04/26 12:42:11;;;;;;;3.75;2.50;;;;;;;12.40;27.72;100587.33;2171054;81;27616;-60
2021/04/26 12:48:40;;;;;;;4.08;1.45;;;;;;;12.56;27.50;100578.84;2342077;76;33128;-62
2021/04/26 12:51:42;;;;;;;2.15;1.10;;;;;;;12.46;27.34;100577.58;2306807;77;27780;-60
2021/04/26 12:55:08;;;;;;;2.62;1.25;;;;;;;12.40;27.15;100569.37;2295916;77;28810;-59
2021/04/26 12:58:27;;;;;;;2.65;1.17;;;;;;;12.39;27.76;100562.27;2264513;78;31560;-60
2021/04/26 13:01:30;;;;;;;2.90;0.98;;;;;;;12.27;26.92;100558.89;2264819;78;32789;-59
2021/04/26 13:04:33;;;;;;;5.15;2.40;;;;;;;12.21;27.09;100556.05;2264928;78;28539;-60
2021/04/26 13:07:36;;;;;;;4.12;2.30;;;;;;;12.23;27.58;100551.93;2281370;77;27582;-60
2021/04/26 13:10:39;;;;;;;2.22;1.17;;;;;;;12.28;28.03;100549.39;2202167;80;29740;-59
2021/04/26 13:14:06;;;;;;;3.83;1.20;;;;;;;12.44;27.71;100541.86;2210289;80;31207;-59
2021/04/26 13:17:11;;;;;;;5.45;2.90;;;;;;;12.48;27.52;100539.41;2224640;78;33103;-59
2021/04/26 13:20:22;;;;;;;;;;;;;;;12.52;27.78;100530.69;2222964;78;29701;-61
2021/04/26 13:23:27;;;;;;;4.78;1.65;;;;;;;12.66;27.95;100529.95;2177409;81;27681;-61
2021/04/26 13:26:31;;;;;;;3.00;1.40;;;;;;;12.80;27.56;100528.71;2219670;80;29876;-61
2021/04/26 13:29:34;;;;;;;2.92;1.70;;;;;;;13.04;28.04;100524.27;2235831;79;32101;-59
2021/04/26 13:32:37;;;;;;;3.77;1.90;;;;;;;13.19;27.76;100508.61;2227814;78;34110;-61
2021/04/26 13:35:40;;;;;;;4.97;2.70;;;;;;;13.38;27.93;100508.89;2178601;81;29441;-59
2021/04/26 13:38:42;;;;;;;1.57;1.27;;;;;;;13.52;27.50;100511.67;2219746;80;27731;-60
2021/04/26 13:41:47;;;;;;;5.15;1.30;;;;;;;13.65;27.49;100502.87;2223413;80;30154;-61
2021/04/26 13:44:50;;;;;;;3.50;1.62;;;;;;;13.69;27.59;100500.39;2218256;79;31134;-63
2021/04/26 13:47:54;;;;;;;4.40;1.92;;;;;;;13.71;27.17;100508.36;2224282;78;34236;-63
2021/04/26 13:50:56;;;;;;;2.27;1.37;;;;;;;13.66;27.24;100502.77;2219779;78;28855;-63
2021/04/26 13:54:00;;;;;;;4.08;2.27;;;;;;;13.58;26.88;100509.09;2219236;80;27700;-62
2021/04/26 13:57:03;;;;;;;4.97;3.10;;;;;;;13.29;26.68;100492.80;2252917;78;28773;-61
2021/04/26 14:00:08;;;;;;;2.77;1.60;;;;;;;12.97;26.02;100499.55;2216701;80;30270;-60
2021/04/26 14:03:10;;;;;;;2.85;1.57;;;;;;;12.67;26.35;100496.75;2259044;78;34029;-62
2021/04/26 14:06:15;;;;;;;2.08;1.40;;;;;;;12.36;26.28;100493.91;2216477;80;28828;-63
2021/04/26 14:09:17;;;;;;;1.98;1.17;;;;;;;12.08;26.38;100490.52;2258975;78;27661;-63
2021/04/26 14:12:20;;;;;;;2.45;1.47;;;;;;;11.80;26.55;100490.11;2216758;80;28818;-62
2021/04/26 14:15:22;;;;;;;4.20;2.10;;;;;;;11.66;27.10;100482.75;2257031;78;31584;-60
2021/04/26 14:18:25;;;;;;;4.03;2.02;;;;;;;11.55;27.09;100478.42;2178227;80;33180;-62
2021/04/26 14:21:27;;;;;;;2.47;1.60;;;;;;;11.45;27.13;100476.67;2218949;80;28749;-62
2021/04/26 14:24:30;;;;;;;3.27;1.32;;;;;;;11.38;27.43;100472.09;2219052;80;27564;-63